createdAt,value
2022-08-28T00:00:36.015Z,13.40
2022-08-28T00:03:03.320Z,12.37
2022-08-28T00:05:33.377Z,11.40
2022-08-28T00:08:00.770Z,11.73
2022-08-28T00:10:29.228Z,11.80
2022-08-28T00:12:57.509Z,11.77
2022-08-28T00:15:30.055Z,13.13
2022-08-28T00:17:57.466Z,12.27
2022-08-28T00:20:24.748Z,12.43
2022-08-28T00:22:54.735Z,12.40
2022-08-28T00:25:24.188Z,14.70
2022-08-28T00:27:52.577Z,11.23
2022-08-28T00:30:25.299Z,11.90
2022-08-28T00:32:54.002Z,13.50
2022-08-28T00:35:23.915Z,12.03
2022-08-28T00:37:51.494Z,11.53
2022-08-28T00:40:28.792Z,12.80
2022-08-28T00:43:00.582Z,12.60
2022-08-28T00:45:28.316Z,11.90
2022-08-28T00:47:55.476Z,14.83
2022-08-28T00:50:24.006Z,12.20
2022-08-28T00:52:53.257Z,14.00
2022-08-28T00:55:22.505Z,12.37
2022-08-28T00:57:51.613Z,13.83
2022-08-28T01:00:25.026Z,16.37
2022-08-28T01:02:53.162Z,14.27
2022-08-28T01:05:21.206Z,13.87
2022-08-28T01:07:49.023Z,13.73
2022-08-28T01:10:18.226Z,13.87
2022-08-28T01:12:46.197Z,14.03
2022-08-28T01:15:17.408Z,14.40
2022-08-28T01:17:47.362Z,15.37
2022-08-28T01:20:17.353Z,15.43
2022-08-28T01:22:54.107Z,13.23
2022-08-28T01:25:24.202Z,13.43
2022-08-28T01:27:51.669Z,14.80
2022-08-28T01:30:21.601Z,16.13
2022-08-28T01:32:51.225Z,13.90
2022-08-28T01:35:20.454Z,15.47
2022-08-28T01:37:48.113Z,15.80
2022-08-28T01:40:17.692Z,13.83
2022-08-28T01:42:45.218Z,12.03
2022-08-28T01:45:17.271Z,12.90
2022-08-28T01:47:45.304Z,11.60
2022-08-28T01:50:13.848Z,13.03
2022-08-28T01:52:41.663Z,11.10
2022-08-28T01:55:10.820Z,11.77
2022-08-28T01:57:43.292Z,12.77
2022-08-28T02:00:10.969Z,11.30
2022-08-28T02:02:38.327Z,12.00
2022-08-28T02:05:05.641Z,11.70
2022-08-28T02:07:32.774Z,12.33
2022-08-28T02:09:59.947Z,11.50
2022-08-28T02:12:27.061Z,11.33
2022-08-28T02:14:55.041Z,12.23
2022-08-28T02:17:22.184Z,10.33
2022-08-28T02:19:49.379Z,10.23
2022-08-28T02:22:16.540Z,10.90
2022-08-28T02:24:43.667Z,10.40
2022-08-28T02:27:10.778Z,11.13
2022-08-28T02:29:39.058Z,11.67
2022-08-28T02:32:06.298Z,10.73
2022-08-28T02:34:36.284Z,11.70
2022-08-28T02:37:03.895Z,11.20
2022-08-28T02:39:31.458Z,10.90
2022-08-28T02:41:58.785Z,11.23
2022-08-28T02:44:25.906Z,11.47
2022-08-28T02:46:53.135Z,10.43
2022-08-28T02:49:22.987Z,10.93
2022-08-28T02:51:50.572Z,10.77
2022-08-28T02:54:18.460Z,10.37
2022-08-28T02:56:45.733Z,9.60
2022-08-28T02:59:13.448Z,11.20
2022-08-28T03:01:40.749Z,11.27
2022-08-28T03:04:08.032Z,11.20
2022-08-28T03:06:35.158Z,10.77
2022-08-28T03:09:02.334Z,12.13
2022-08-28T03:11:29.507Z,10.77
2022-08-28T03:13:56.740Z,11.87
2022-08-28T03:16:25.393Z,10.73
2022-08-28T03:18:52.687Z,12.13
2022-08-28T03:21:19.849Z,10.37
2022-08-28T03:23:47.262Z,11.40
2022-08-28T03:26:16.171Z,11.13
2022-08-28T03:28:44.935Z,10.03
2022-08-28T03:31:14.042Z,11.40
2022-08-28T03:33:41.968Z,11.07
2022-08-28T03:36:11.084Z,11.10
2022-08-28T03:38:38.635Z,12.40
2022-08-28T03:41:10.714Z,10.80
2022-08-28T03:43:37.999Z,11.20
2022-08-28T03:46:06.893Z,12.03
2022-08-28T03:48:36.756Z,11.73
2022-08-28T03:51:11.533Z,11.97
2022-08-28T03:53:39.961Z,11.93
2022-08-28T03:56:11.547Z,13.23
2022-08-28T03:58:39.326Z,10.50
2022-08-28T04:01:06.543Z,10.90
2022-08-28T04:03:33.856Z,11.10
2022-08-28T04:06:01.454Z,12.77
2022-08-28T04:08:29.415Z,10.93
2022-08-28T04:10:56.911Z,11.67
2022-08-28T04:13:24.317Z,11.53
2022-08-28T04:16:02.524Z,11.70
2022-08-28T04:18:33.574Z,12.53
2022-08-28T04:21:02.349Z,13.83
2022-08-28T04:23:29.775Z,14.70
2022-08-28T04:25:57.234Z,14.50
2022-08-28T04:28:25.900Z,15.13
2022-08-28T04:30:56.684Z,13.87
2022-08-28T04:33:24.234Z,13.83
2022-08-28T04:35:51.501Z,15.17
2022-08-28T04:38:19.151Z,14.87
2022-08-28T04:40:46.495Z,16.10
2022-08-28T04:43:13.671Z,14.43
2022-08-28T04:45:41.615Z,15.07
2022-08-28T04:48:13.619Z,14.30
2022-08-28T04:50:44.789Z,14.13
2022-08-28T04:53:12.418Z,14.60
2022-08-28T04:55:54.253Z,14.97
2022-08-28T04:58:24.266Z,14.07
2022-08-28T05:00:52.342Z,14.87
2022-08-28T05:03:19.555Z,14.20
2022-08-28T05:05:51.949Z,14.90
2022-08-28T05:08:20.219Z,15.63
2022-08-28T05:10:47.796Z,15.17
2022-08-28T05:13:15.862Z,14.60
2022-08-28T05:15:44.591Z,16.73
2022-08-28T05:18:14.129Z,14.30
2022-08-28T05:20:42.662Z,13.40
2022-08-28T05:23:10.243Z,14.70
2022-08-28T05:25:38.362Z,14.60
2022-08-28T05:28:06.096Z,13.63
2022-08-28T05:30:37.585Z,14.83
2022-08-28T05:33:05.570Z,12.73
2022-08-28T05:35:39.645Z,13.67
2022-08-28T05:38:07.599Z,13.00
2022-08-28T05:40:35.193Z,12.10
2022-08-28T05:43:02.362Z,12.80
2022-08-28T05:45:29.487Z,13.13
2022-08-28T05:47:57.415Z,12.40
2022-08-28T05:50:24.572Z,12.03
2022-08-28T05:52:51.699Z,13.10
2022-08-28T05:55:18.823Z,12.37
2022-08-28T05:57:46.308Z,13.20
2022-08-28T06:00:13.802Z,12.80
2022-08-28T06:02:42.072Z,11.73
2022-08-28T06:05:12.925Z,11.67
2022-08-28T06:07:41.044Z,10.50
2022-08-28T06:10:10.649Z,13.27
2022-08-28T06:12:38.276Z,11.50
2022-08-28T06:15:06.019Z,11.07
2022-08-28T06:17:33.927Z,10.60
2022-08-28T06:20:01.281Z,12.40
2022-08-28T06:22:28.848Z,10.37
2022-08-28T06:24:55.984Z,10.67
2022-08-28T06:27:24.619Z,10.70
2022-08-28T06:29:52.975Z,11.23
2022-08-28T06:32:20.191Z,11.47
2022-08-28T06:34:47.394Z,9.97
2022-08-28T06:37:14.526Z,10.23
2022-08-28T06:39:41.648Z,9.63
2022-08-28T06:42:09.223Z,10.03
2022-08-28T06:44:38.467Z,10.60
2022-08-28T06:47:06.135Z,11.47
2022-08-28T06:49:33.409Z,10.10
2022-08-28T06:52:00.521Z,9.37
2022-08-28T06:54:30.858Z,9.77
2022-08-28T06:56:57.980Z,9.13
2022-08-28T06:59:25.127Z,9.63
2022-08-28T07:01:55.422Z,8.93
2022-08-28T07:04:22.682Z,9.30
2022-08-28T07:06:54.833Z,9.13
2022-08-28T07:09:22.595Z,9.67
2022-08-28T07:11:49.867Z,10.23
2022-08-28T07:14:17.119Z,8.97
2022-08-28T07:16:44.536Z,8.53
2022-08-28T07:19:12.347Z,8.77
2022-08-28T07:21:43.572Z,9.17
2022-08-28T07:24:11.791Z,8.97
2022-08-28T07:26:41.009Z,9.30
2022-08-28T07:29:10.803Z,7.67
2022-08-28T07:31:39.413Z,8.13
2022-08-28T07:34:06.619Z,8.90
2022-08-28T07:36:33.777Z,9.27
2022-08-28T07:39:00.934Z,8.17
2022-08-28T07:41:29.334Z,7.73
2022-08-28T07:44:14.993Z,7.75
2022-08-28T07:46:42.227Z,7.97
2022-08-28T07:49:09.927Z,7.55
2022-08-28T07:51:37.380Z,7.33
2022-08-28T07:54:04.889Z,7.33
2022-08-28T07:56:33.077Z,7.10
2022-08-28T07:59:01.138Z,9.23
2022-08-28T08:01:30.078Z,6.30
2022-08-28T08:04:01.565Z,7.00
2022-08-28T08:06:33.769Z,6.40
2022-08-28T08:09:01.879Z,6.80
2022-08-28T08:11:32.489Z,6.28
2022-08-28T08:14:04.795Z,5.93
2022-08-28T08:16:34.703Z,7.10
2022-08-28T08:19:03.859Z,11.02
2022-08-28T08:21:31.028Z,5.90
2022-08-28T08:23:58.461Z,5.78
2022-08-28T08:26:28.096Z,6.80
2022-08-28T08:28:55.560Z,5.60
2022-08-28T08:31:22.727Z,6.00
2022-08-28T08:33:52.163Z,5.60
2022-08-28T08:36:20.831Z,5.13
2022-08-28T08:38:48.174Z,4.95
2022-08-28T08:41:18.210Z,5.80
2022-08-28T08:43:52.074Z,5.43
2022-08-28T08:46:20.881Z,5.40
2022-08-28T08:48:48.044Z,5.25
2022-08-28T08:51:20.126Z,5.57
2022-08-28T08:54:07.584Z,6.00
2022-08-28T08:56:35.357Z,5.90
2022-08-28T08:59:04.022Z,5.22
2022-08-28T09:01:39.604Z,5.70
2022-08-28T09:04:15.927Z,6.22
2022-08-28T09:07:04.431Z,5.28
2022-08-28T09:09:37.346Z,4.95
2022-08-28T09:12:09.200Z,4.82
2022-08-28T09:14:55.100Z,4.97
2022-08-28T09:17:24.549Z,5.18
2022-08-28T09:19:51.667Z,5.60
2022-08-28T09:22:18.908Z,4.53
2022-08-28T09:24:46.054Z,3.30
2022-08-28T09:27:30.230Z,4.03
2022-08-28T09:30:07.206Z,4.70
2022-08-28T09:32:39.090Z,4.00
2022-08-28T09:35:06.366Z,4.25
2022-08-28T09:37:34.802Z,4.13
2022-08-28T09:40:20.272Z,5.35
2022-08-28T09:43:17.854Z,6.20
2022-08-28T09:45:45.418Z,4.85
2022-08-28T09:48:23.154Z,4.57
2022-08-28T09:51:16.785Z,4.32
2022-08-28T09:53:56.950Z,4.20
2022-08-28T09:56:33.488Z,6.18
2022-08-28T09:59:07.617Z,4.45
2022-08-28T10:01:49.917Z,4.38
2022-08-28T10:04:17.816Z,4.57
2022-08-28T10:06:49.677Z,4.35
2022-08-28T10:09:29.690Z,5.70
2022-08-28T10:12:21.253Z,3.05
2022-08-28T10:14:48.425Z,3.88
2022-08-28T10:17:19.822Z,2.97
2022-08-28T10:19:59.271Z,3.58
2022-08-28T10:22:37.671Z,3.88
2022-08-28T10:25:16.845Z,3.05
2022-08-28T10:27:49.467Z,2.38
2022-08-28T10:30:21.601Z,4.93
2022-08-28T10:33:02.933Z,2.03
2022-08-28T10:35:38.046Z,2.28
2022-08-28T10:38:08.444Z,2.42
2022-08-28T10:40:51.532Z,1.85
2022-08-28T10:43:33.806Z,2.88
2022-08-28T10:46:04.926Z,2.50
2022-08-28T10:48:52.145Z,3.63
2022-08-28T10:51:26.716Z,2.45
2022-08-28T10:54:05.759Z,3.35
2022-08-28T10:56:44.999Z,2.10
2022-08-28T10:59:12.297Z,2.50
2022-08-28T11:01:41.152Z,3.10
2022-08-28T11:04:10.720Z,2.42
2022-08-28T11:06:40.049Z,2.08
2022-08-28T11:09:26.719Z,1.85
2022-08-28T11:12:01.036Z,1.67
2022-08-28T11:14:31.946Z,2.78
2022-08-28T11:17:02.079Z,2.17
2022-08-28T11:19:35.067Z,2.13
2022-08-28T11:22:08.189Z,1.52
2022-08-28T11:24:57.971Z,1.85
2022-08-28T11:27:31.032Z,2.15
2022-08-28T11:30:10.908Z,1.95
2022-08-28T11:32:56.928Z,1.52
2022-08-28T11:35:33.011Z,3.22
2022-08-28T11:38:00.274Z,2.13
2022-08-28T11:40:33.573Z,1.90
2022-08-28T11:43:16.714Z,2.63
2022-08-28T11:45:46.543Z,3.85
2022-08-28T11:48:23.712Z,2.58
2022-08-28T11:50:55.630Z,3.25
2022-08-28T11:53:48.931Z,2.97
2022-08-28T11:56:29.032Z,1.75
2022-08-28T11:59:11.395Z,2.15
2022-08-28T12:01:39.755Z,2.25
2022-08-28T12:04:08.998Z,7.18
2022-08-28T12:06:55.719Z,11.50
2022-08-28T12:09:41.477Z,7.43
2022-08-28T12:12:23.877Z,11.40
2022-08-28T12:14:56.863Z,5.35
2022-08-28T12:17:27.921Z,4.87
2022-08-28T12:20:00.602Z,5.57
2022-08-28T12:22:44.497Z,6.60
2022-08-28T12:25:16.120Z,4.83
2022-08-28T12:27:43.545Z,7.03
2022-08-28T12:30:10.804Z,4.63
2022-08-28T12:32:48.246Z,4.10
2022-08-28T12:35:19.910Z,2.33
2022-08-28T12:37:59.985Z,3.43
2022-08-28T12:40:27.238Z,2.80
2022-08-28T12:42:58.673Z,1.60
2022-08-28T12:45:44.586Z,3.37
2022-08-28T12:48:18.858Z,3.03
2022-08-28T12:50:46.026Z,2.00
2022-08-28T12:53:16.277Z,2.37
2022-08-28T12:55:44.417Z,3.70
2022-08-28T12:58:31.924Z,2.80
2022-08-28T13:01:01.378Z,3.10
2022-08-28T13:03:29.418Z,3.57
2022-08-28T13:05:58.722Z,2.00
2022-08-28T13:08:25.874Z,3.27
2022-08-28T13:10:53.154Z,2.70
2022-08-28T13:13:21.934Z,2.13
2022-08-28T13:15:54.404Z,1.90
2022-08-28T13:18:34.911Z,2.23
2022-08-28T13:21:34.061Z,2.03
2022-08-28T13:24:26.169Z,1.30
2022-08-28T13:27:01.458Z,1.23
2022-08-28T13:29:28.923Z,1.17
2022-08-28T13:32:00.395Z,1.42
2022-08-28T13:34:29.169Z,0.90
2022-08-28T13:36:59.633Z,1.80
2022-08-28T13:39:31.693Z,1.73
2022-08-28T13:42:00.437Z,3.22
2022-08-28T13:44:28.174Z,1.60
2022-08-28T13:46:55.857Z,0.82
2022-08-28T13:49:23.295Z,2.92
2022-08-28T13:51:51.014Z,1.58
2022-08-28T13:54:18.538Z,0.82
2022-08-28T13:56:47.048Z,1.75
2022-08-28T13:59:14.190Z,1.35
2022-08-28T14:01:59.856Z,1.58
2022-08-28T14:04:27.063Z,1.25
2022-08-28T14:06:54.220Z,0.88
2022-08-28T14:09:21.590Z,0.80
2022-08-28T14:11:50.053Z,2.25
2022-08-28T14:14:17.386Z,1.73
2022-08-28T14:16:45.756Z,1.80
2022-08-28T14:19:13.367Z,1.38
2022-08-28T14:21:41.670Z,0.98
2022-08-28T14:24:09.019Z,2.88
2022-08-28T14:26:36.485Z,2.40
2022-08-28T14:29:04.747Z,3.37
2022-08-28T14:31:32.051Z,4.07
2022-08-28T14:34:00.845Z,2.33
2022-08-28T14:36:29.868Z,2.23
2022-08-28T14:38:58.780Z,2.37
2022-08-28T14:41:28.287Z,1.97
2022-08-28T14:43:56.194Z,4.37
2022-08-28T14:46:28.524Z,2.40
2022-08-28T14:48:57.207Z,1.33
2022-08-28T14:51:24.988Z,1.40
2022-08-28T14:53:52.815Z,1.70
2022-08-28T14:56:22.998Z,1.40
2022-08-28T14:58:50.295Z,1.53
2022-08-28T15:01:30.817Z,2.27
2022-08-28T15:04:09.716Z,1.63
2022-08-28T15:06:36.959Z,1.73
2022-08-28T15:09:04.799Z,2.03
2022-08-28T15:11:32.031Z,1.73
2022-08-28T15:13:59.184Z,1.63
2022-08-28T15:16:30.150Z,2.67
2022-08-28T15:18:58.447Z,2.37
2022-08-28T15:21:32.140Z,2.00
2022-08-28T15:24:00.084Z,3.00
2022-08-28T15:26:27.675Z,1.33
2022-08-28T15:28:58.176Z,2.07
2022-08-28T15:31:25.615Z,2.43
2022-08-28T15:33:52.778Z,2.80
2022-08-28T15:36:20.238Z,2.93
2022-08-28T15:39:06.300Z,2.93
2022-08-28T15:41:33.490Z,4.67
2022-08-28T15:44:01.973Z,12.57
2022-08-28T15:46:31.394Z,7.00
2022-08-28T15:48:58.730Z,7.10
2022-08-28T15:51:26.511Z,5.27
2022-08-28T15:53:53.722Z,5.70
2022-08-28T15:56:20.932Z,4.40
2022-08-28T15:58:48.611Z,4.70
2022-08-28T16:01:15.891Z,3.60
2022-08-28T16:03:43.195Z,4.77
2022-08-28T16:06:14.884Z,3.03
2022-08-28T16:08:42.702Z,3.10
2022-08-28T16:11:11.879Z,2.40
2022-08-28T16:13:39.082Z,4.73
2022-08-28T16:16:06.286Z,2.50
2022-08-28T16:18:33.447Z,2.07
2022-08-28T16:21:04.697Z,1.73
2022-08-28T16:23:32.751Z,2.53
2022-08-28T16:26:00.192Z,2.47
2022-08-28T16:28:27.699Z,1.60
2022-08-28T16:30:54.953Z,2.03
2022-08-28T16:33:22.203Z,1.43
2022-08-28T16:35:56.202Z,1.90
2022-08-28T16:38:23.830Z,2.13
2022-08-28T16:40:51.005Z,1.20
2022-08-28T16:43:18.194Z,1.93
2022-08-28T16:45:46.046Z,2.03
2022-08-28T16:48:14.240Z,1.67
2022-08-28T16:50:42.663Z,3.63
2022-08-28T16:53:10.082Z,1.70
2022-08-28T16:55:38.341Z,2.67
2022-08-28T16:58:05.807Z,2.13
2022-08-28T17:00:33.692Z,2.60
2022-08-28T17:03:01.275Z,2.63
2022-08-28T17:05:29.939Z,2.63
2022-08-28T17:07:57.095Z,3.17
2022-08-28T17:10:25.494Z,3.20
2022-08-28T17:12:52.844Z,3.73
2022-08-28T17:15:22.200Z,2.63
2022-08-28T17:17:49.394Z,2.03
2022-08-28T17:20:35.191Z,2.60
2022-08-28T17:23:02.374Z,2.53
2022-08-28T17:25:29.684Z,2.20
2022-08-28T17:27:57.167Z,2.50
2022-08-28T17:30:24.383Z,1.83
2022-08-28T17:32:52.068Z,3.63
2022-08-28T17:35:19.338Z,3.07
2022-08-28T17:37:46.908Z,3.80
2022-08-28T17:40:16.500Z,3.63
2022-08-28T17:42:45.695Z,2.83
2022-08-28T17:45:13.745Z,4.73
2022-08-28T17:47:40.986Z,4.93
2022-08-28T17:50:09.200Z,4.67
2022-08-28T17:52:36.381Z,2.33
2022-08-28T17:55:04.212Z,2.03
2022-08-28T17:57:31.439Z,3.13
2022-08-28T17:59:59.656Z,2.70
2022-08-28T18:02:27.515Z,3.80
2022-08-28T18:04:54.839Z,2.40
2022-08-28T18:07:23.577Z,2.77
2022-08-28T18:09:51.310Z,2.73
2022-08-28T18:12:19.366Z,2.33
2022-08-28T18:14:46.619Z,2.20
2022-08-28T18:17:16.045Z,5.20
2022-08-28T18:19:43.835Z,2.40
2022-08-28T18:22:11.855Z,2.47
2022-08-28T18:24:39.691Z,3.23
2022-08-28T18:27:08.277Z,2.77
2022-08-28T18:29:36.694Z,2.30
2022-08-28T18:32:04.828Z,1.30
2022-08-28T18:34:32.124Z,2.97
2022-08-28T18:36:59.900Z,2.53
2022-08-28T18:39:27.437Z,1.90
2022-08-28T18:41:58.264Z,1.50
2022-08-28T18:44:25.427Z,2.03
2022-08-28T18:46:52.754Z,3.67
2022-08-28T18:49:20.026Z,5.30
2022-08-28T18:51:47.623Z,1.90
2022-08-28T18:54:16.951Z,3.37
2022-08-28T18:56:44.519Z,2.07
2022-08-28T18:59:11.897Z,1.67
2022-08-28T19:01:39.164Z,2.53
2022-08-28T19:04:06.757Z,2.63
2022-08-28T19:06:34.347Z,3.03
2022-08-28T19:09:01.691Z,3.43
2022-08-28T19:11:30.236Z,2.33
2022-08-28T19:13:57.594Z,1.90
2022-08-28T19:16:24.886Z,2.73
2022-08-28T19:18:54.732Z,2.30
2022-08-28T19:21:22.359Z,2.30
2022-08-28T19:23:55.753Z,2.00
2022-08-28T19:26:24.620Z,1.70
2022-08-28T19:28:51.929Z,2.50
2022-08-28T19:31:19.342Z,1.63
2022-08-28T19:33:46.957Z,3.00
2022-08-28T19:36:14.309Z,2.00
2022-08-28T19:38:42.079Z,1.23
2022-08-28T19:41:10.177Z,2.30
2022-08-28T19:43:42.565Z,2.10
2022-08-28T19:46:18.634Z,2.13
2022-08-28T19:48:47.745Z,3.67
2022-08-28T19:51:17.303Z,1.80
2022-08-28T19:53:44.999Z,1.80
2022-08-28T19:56:13.631Z,1.63
2022-08-28T19:58:40.782Z,1.30
2022-08-28T20:01:08.036Z,1.83
2022-08-28T20:03:36.303Z,2.03
2022-08-28T20:06:03.989Z,1.67
2022-08-28T20:08:31.496Z,2.43
2022-08-28T20:10:59.376Z,2.07
2022-08-28T20:13:27.132Z,0.93
2022-08-28T20:15:54.292Z,2.00
2022-08-28T20:18:23.548Z,1.57
2022-08-28T20:20:51.635Z,1.50
2022-08-28T20:23:18.781Z,1.53
2022-08-28T20:25:49.852Z,1.10
2022-08-28T20:28:18.283Z,2.17
2022-08-28T20:30:46.724Z,2.83
2022-08-28T20:33:14.011Z,1.60
2022-08-28T20:35:41.299Z,1.13
2022-08-28T20:38:10.968Z,2.23
2022-08-28T20:40:38.208Z,2.43
2022-08-28T20:43:06.551Z,4.27
2022-08-28T20:45:33.667Z,2.93
2022-08-28T20:48:00.862Z,3.67
2022-08-28T20:50:28.039Z,2.93
2022-08-28T20:52:55.226Z,3.23
2022-08-28T20:55:22.447Z,2.33
2022-08-28T20:57:49.584Z,3.37
2022-08-28T21:00:16.723Z,3.07
2022-08-28T21:02:43.878Z,4.03
2022-08-28T21:05:11.138Z,3.67
2022-08-28T21:07:38.387Z,4.60
2022-08-28T21:10:07.970Z,4.33
2022-08-28T21:12:39.367Z,3.57
2022-08-28T21:15:07.435Z,4.20
2022-08-28T21:17:34.662Z,3.90
2022-08-28T21:20:04.419Z,4.80
2022-08-28T21:22:31.978Z,3.70
2022-08-28T21:25:00.216Z,3.63
2022-08-28T21:27:27.558Z,3.80
2022-08-28T21:29:58.798Z,4.23
2022-08-28T21:32:26.379Z,4.53
2022-08-28T21:34:54.478Z,4.80
2022-08-28T21:37:21.671Z,3.73
2022-08-28T21:39:48.825Z,4.50
2022-08-28T21:42:16.202Z,5.30
2022-08-28T21:44:48.300Z,4.07
2022-08-28T21:47:19.376Z,5.83
2022-08-28T21:49:49.468Z,3.50
2022-08-28T21:52:18.194Z,4.07
2022-08-28T21:54:45.376Z,4.60
2022-08-28T21:57:12.520Z,4.17
2022-08-28T21:59:39.792Z,3.53
2022-08-28T22:02:07.517Z,4.97
2022-08-28T22:04:34.990Z,4.07
2022-08-28T22:07:02.250Z,4.47
2022-08-28T22:09:29.727Z,4.47
2022-08-28T22:11:57.126Z,3.27
2022-08-28T22:14:25.180Z,3.53
2022-08-28T22:16:52.492Z,3.40
2022-08-28T22:19:19.865Z,4.37
2022-08-28T22:22:05.965Z,3.50
2022-08-28T22:24:37.033Z,3.83
2022-08-28T22:27:04.784Z,3.07
2022-08-28T22:29:36.442Z,4.33
2022-08-28T22:32:04.971Z,4.57
2022-08-28T22:34:32.144Z,3.43
2022-08-28T22:36:59.339Z,4.07
2022-08-28T22:39:26.470Z,3.47
2022-08-28T22:41:53.612Z,3.57
2022-08-28T22:44:20.731Z,3.83
2022-08-28T22:46:47.895Z,4.70
2022-08-28T22:49:16.320Z,4.27
2022-08-28T22:51:43.451Z,4.23
2022-08-28T22:54:10.580Z,4.60
2022-08-28T22:56:37.695Z,3.17
2022-08-28T22:59:04.862Z,3.10
2022-08-28T23:01:32.023Z,3.50
2022-08-28T23:04:01.285Z,3.20
2022-08-28T23:06:28.515Z,4.23
2022-08-28T23:08:55.850Z,3.63
2022-08-28T23:11:23.490Z,3.40
2022-08-28T23:13:50.609Z,3.90
2022-08-28T23:16:23.878Z,3.70
2022-08-28T23:19:08.593Z,3.13
2022-08-28T23:21:36.577Z,3.23
2022-08-28T23:24:11.539Z,2.53
2022-08-28T23:26:38.682Z,2.93
2022-08-28T23:29:05.891Z,3.10
2022-08-28T23:31:33.081Z,2.90
2022-08-28T23:34:00.341Z,3.93
2022-08-28T23:36:27.522Z,3.80
2022-08-28T23:38:54.695Z,3.60
2022-08-28T23:41:21.981Z,4.23
2022-08-28T23:43:49.552Z,2.97
2022-08-28T23:46:17.540Z,4.03
2022-08-28T23:48:45.296Z,3.77
2022-08-28T23:51:16.949Z,3.87
2022-08-28T23:53:45.027Z,3.43
2022-08-28T23:56:12.760Z,2.07
2022-08-28T23:58:40.299Z,2.83
